createdAt,value
2022-09-12T00:01:34.933Z,-11372.72
2022-09-12T00:04:40.993Z,-11372.44
2022-09-12T00:07:48.931Z,-11368.19
2022-09-12T00:10:55.170Z,-11373.00
2022-09-12T00:14:02.831Z,-11379.75
2022-09-12T00:17:08.936Z,-11367.63
2022-09-12T00:20:14.871Z,-11368.47
2022-09-12T00:23:22.596Z,-11369.03
2022-09-12T00:26:28.984Z,-11372.00
2022-09-12T00:29:35.391Z,-11376.38
2022-09-12T00:32:41.703Z,-11379.03
2022-09-12T00:35:50.512Z,-11373.84
2022-09-12T00:38:58.611Z,-11376.09
2022-09-12T00:42:04.790Z,-11368.19
2022-09-12T00:45:23.666Z,-11372.72
2022-09-12T00:48:35.273Z,-11370.16
2022-09-12T00:51:44.011Z,-11364.53
2022-09-12T00:54:57.246Z,-11361.72
2022-09-12T00:58:08.222Z,-11360.59
2022-09-12T01:01:14.868Z,-11355.78
2022-09-12T01:04:23.424Z,-11358.91
2022-09-12T01:07:30.212Z,-11360.31
2022-09-12T01:10:39.947Z,-11362.13
2022-09-12T01:13:47.509Z,-11363.25
2022-09-12T01:16:53.830Z,-11358.34
2022-09-12T01:20:36.119Z,-11354.66
2022-09-12T01:24:17.527Z,-11357.06
2022-09-12T01:27:41.739Z,-11348.47
2022-09-12T01:30:54.146Z,-11350.31
2022-09-12T01:34:15.831Z,-11358.47
2022-09-12T01:37:33.432Z,-11355.38
2022-09-12T01:40:49.270Z,-11359.47
2022-09-12T01:44:06.954Z,-11355.50
2022-09-12T01:47:21.278Z,-11362.84
2022-09-12T01:50:32.994Z,-11358.34
2022-09-12T01:53:44.635Z,-11360.88
2022-09-12T01:56:54.250Z,-11358.63
2022-09-12T02:00:04.904Z,-11363.53
2022-09-12T02:03:16.814Z,-11364.81
2022-09-12T02:06:28.358Z,-11366.50
2022-09-12T02:09:39.306Z,-11366.38
2022-09-12T02:12:51.425Z,-11372.44
2022-09-12T02:16:04.941Z,-11368.91
2022-09-12T02:19:17.007Z,-11376.38
2022-09-12T02:22:26.597Z,-11369.03
2022-09-12T02:25:36.530Z,-11366.38
2022-09-12T02:28:45.754Z,-11368.75
2022-09-12T02:31:59.091Z,-11362.28
2022-09-12T02:35:12.592Z,-11371.28
2022-09-12T02:38:26.079Z,-11370.03
2022-09-12T02:41:32.237Z,-11363.13
2022-09-12T02:44:38.956Z,-11365.38
2022-09-12T02:47:49.231Z,-11367.63
2022-09-12T02:50:57.540Z,-11358.06
2022-09-12T02:54:06.562Z,-11352.13
2022-09-12T02:57:22.385Z,-11366.09
2022-09-12T03:00:31.177Z,-11351.44
2022-09-12T03:03:52.647Z,-11351.84
2022-09-12T03:07:14.264Z,-11361.72
2022-09-12T03:10:29.430Z,-11359.75
2022-09-12T03:13:45.799Z,-11351.84
2022-09-12T03:17:05.320Z,-11358.91
2022-09-12T03:20:14.968Z,-11363.97
2022-09-12T03:23:29.104Z,-11353.25
2022-09-12T03:26:42.615Z,-11355.22
2022-09-12T03:29:50.817Z,-11351.28
2022-09-12T03:32:56.687Z,-11345.94
2022-09-12T03:36:03.286Z,-11344.25
2022-09-12T03:39:10.703Z,-11341.84
2022-09-12T03:42:16.802Z,-11347.63
2022-09-12T03:45:23.100Z,-11350.16
2022-09-12T03:48:29.528Z,-11352.56
2022-09-12T03:51:36.007Z,-11351.00
2022-09-12T03:54:43.893Z,-11356.78
2022-09-12T03:57:50.358Z,-11350.59
2022-09-12T04:00:56.826Z,-11340.88
2022-09-12T04:04:03.802Z,-11344.81
2022-09-12T04:07:10.728Z,-11341.16
2022-09-12T04:10:19.014Z,-11345.53
2022-09-12T04:13:25.498Z,-11348.91
2022-09-12T04:16:32.447Z,-11338.19
2022-09-12T04:19:39.096Z,-11344.25
2022-09-12T04:22:45.556Z,-11348.19
2022-09-12T04:25:57.151Z,-11350.03
2022-09-12T04:29:03.344Z,-11343.97
2022-09-12T04:32:09.850Z,-11343.69
2022-09-12T04:35:16.143Z,-11350.59
2022-09-12T04:38:22.702Z,-11354.53
2022-09-12T04:41:32.758Z,-11365.94
2022-09-12T04:44:39.020Z,-11350.72
2022-09-12T04:47:46.592Z,-11356.22
2022-09-12T04:50:52.778Z,-11358.63
2022-09-12T04:54:00.686Z,-11374.13
2022-09-12T04:57:08.199Z,-11379.63
2022-09-12T05:00:15.292Z,-11381.44
2022-09-12T05:03:21.311Z,-11375.81
2022-09-12T05:06:29.011Z,-11375.81
2022-09-12T05:09:35.184Z,-11374.41
2022-09-12T05:12:42.781Z,-11375.25
2022-09-12T05:15:56.460Z,-11389.63
2022-09-12T05:19:02.895Z,-11382.44
2022-09-12T05:22:09.846Z,-11375.53
2022-09-12T05:25:15.872Z,-11382.28
2022-09-12T05:28:26.254Z,-11397.38
2022-09-12T05:31:32.767Z,-11390.03
2022-09-12T05:34:39.160Z,-11392.44
2022-09-12T05:37:45.451Z,-11391.03
2022-09-12T05:40:51.899Z,-11371.28
2022-09-12T05:44:01.107Z,-11390.19
2022-09-12T05:47:07.816Z,-11393.97
2022-09-12T05:50:14.026Z,-11387.06
2022-09-12T05:53:20.728Z,-11391.59
2022-09-12T05:56:28.315Z,-11390.19
2022-09-12T05:59:36.035Z,-11401.72
2022-09-12T06:02:42.733Z,-11407.94
2022-09-12T06:05:50.729Z,-11407.09
2022-09-12T06:08:59.392Z,-11414.41
2022-09-12T06:12:06.243Z,-11406.81
2022-09-12T06:15:14.503Z,-11415.41
2022-09-12T06:18:21.098Z,-11427.09
2022-09-12T06:21:28.517Z,-11421.19
2022-09-12T06:24:34.463Z,-11422.31
2022-09-12T06:27:40.835Z,-11433.44
2022-09-12T06:30:48.996Z,-11424.44
2022-09-12T06:33:56.679Z,-11430.78
2022-09-12T06:37:04.077Z,-11418.94
2022-09-12T06:40:11.248Z,-11428.25
2022-09-12T06:43:17.753Z,-11425.97
2022-09-12T06:46:25.655Z,-11415.53
2022-09-12T06:49:32.383Z,-11415.41
2022-09-12T06:52:38.326Z,-11427.81
2022-09-12T06:55:44.777Z,-11440.50
2022-09-12T06:58:53.054Z,-11435.69
2022-09-12T07:02:01.715Z,-11433.03
2022-09-12T07:05:08.852Z,-11436.13
2022-09-12T07:08:15.050Z,-11443.75
2022-09-12T07:11:23.739Z,-11451.34
2022-09-12T07:14:30.100Z,-11440.91
2022-09-12T07:17:37.854Z,-11437.25
2022-09-12T07:20:44.029Z,-11441.75
2022-09-12T07:23:51.960Z,-11454.88
2022-09-12T07:26:58.430Z,-11451.06
2022-09-12T07:30:05.539Z,-11447.13
2022-09-12T07:33:13.531Z,-11452.47
2022-09-12T07:36:22.449Z,-11459.69
2022-09-12T07:39:28.879Z,-11455.03
2022-09-12T07:42:35.947Z,-11441.34
2022-09-12T07:45:43.462Z,-11468.13
2022-09-12T07:48:55.328Z,-11462.63
2022-09-12T07:52:01.507Z,-11469.41
2022-09-12T07:55:08.559Z,-11485.75
2022-09-12T07:58:15.411Z,-11472.66
2022-09-12T08:01:23.598Z,-11463.19
2022-09-12T08:04:31.678Z,-11465.44
2022-09-12T08:07:38.393Z,-11490.56
2022-09-12T08:10:44.560Z,-11474.06
2022-09-12T08:13:55.267Z,-11485.63
2022-09-12T08:17:02.214Z,-11492.13
2022-09-12T08:20:10.541Z,-11478.44
2022-09-12T08:23:16.623Z,-11483.78
2022-09-12T08:26:23.513Z,-11499.03
2022-09-12T08:29:30.087Z,-11510.31
2022-09-12T08:32:36.308Z,-11509.75
2022-09-12T08:35:44.068Z,-11502.13
2022-09-12T08:38:53.684Z,-11481.81
2022-09-12T08:42:04.291Z,-11482.81
2022-09-12T08:45:19.083Z,-11484.50
2022-09-12T08:48:25.631Z,-11486.31
2022-09-12T08:51:36.042Z,-11494.50
2022-09-12T08:54:42.842Z,-11504.38
2022-09-12T08:57:49.257Z,-11496.75
2022-09-12T09:01:03.543Z,-11488.44
2022-09-12T09:04:34.079Z,-11512.84
2022-09-12T09:08:13.910Z,-11496.06
2022-09-12T09:11:35.744Z,-11510.03
2022-09-12T09:15:03.426Z,-11498.31
2022-09-12T09:18:17.320Z,-11492.25
2022-09-12T09:21:30.315Z,-11502.13
2022-09-12T09:24:41.151Z,-11502.56
2022-09-12T09:27:55.168Z,-11511.56
2022-09-12T09:31:01.491Z,-11506.34
2022-09-12T09:34:15.972Z,-11501.00
2022-09-12T09:37:29.032Z,-11503.81
2022-09-12T09:40:47.120Z,-11497.88
2022-09-12T09:43:53.816Z,-11521.03
2022-09-12T09:47:01.987Z,-11522.59
2022-09-12T09:50:08.887Z,-11515.94
2022-09-12T09:53:30.894Z,-11539.22
2022-09-12T09:56:40.212Z,-11531.19
2022-09-12T09:59:46.499Z,-11526.41
2022-09-12T10:03:32.749Z,-11528.94
2022-09-12T10:06:40.299Z,-11520.75
2022-09-12T10:10:07.208Z,-11520.19
2022-09-12T10:13:26.496Z,-11537.97
2022-09-12T10:16:34.825Z,-11535.56
2022-09-12T10:19:41.631Z,-11521.59
2022-09-12T10:22:49.731Z,-11546.44
2022-09-12T10:25:59.057Z,-11548.41
2022-09-12T10:29:15.274Z,-11532.31
2022-09-12T10:32:30.473Z,-11544.59
2022-09-12T10:35:47.253Z,-11553.06
2022-09-12T10:38:55.282Z,-11559.41
2022-09-12T10:42:02.246Z,-11523.84
2022-09-12T10:45:20.322Z,-11560.41
2022-09-12T10:48:31.860Z,-11545.16
2022-09-12T10:51:38.149Z,-11527.25
2022-09-12T10:54:44.867Z,-11535.00
2022-09-12T10:58:18.633Z,-11548.13
2022-09-12T11:01:39.164Z,-11557.44
2022-09-12T11:05:00.624Z,-11564.78
2022-09-12T11:08:17.897Z,-11557.56
2022-09-12T11:11:46.179Z,-11561.09
2022-09-12T11:15:04.762Z,-11553.63
2022-09-12T11:18:27.935Z,-11565.63
2022-09-12T11:21:49.667Z,-11548.13
2022-09-12T11:25:18.352Z,-11560.41
2022-09-12T11:28:32.760Z,-11527.53
2022-09-12T11:31:54.206Z,-11548.41
2022-09-12T11:35:11.906Z,-11568.72
2022-09-12T11:38:52.118Z,-11544.03
2022-09-12T11:42:04.184Z,-11543.31
2022-09-12T11:45:18.257Z,-11556.03
2022-09-12T11:48:39.429Z,-11557.00
2022-09-12T11:51:54.055Z,-11572.97
2022-09-12T11:55:05.133Z,-11577.91
2022-09-12T11:58:14.035Z,-11566.59
2022-09-12T12:01:24.901Z,-11570.00
2022-09-12T12:04:39.147Z,-11562.09
2022-09-12T12:07:54.111Z,-11557.44
2022-09-12T12:11:02.071Z,-11551.50
2022-09-12T12:14:17.184Z,-11561.94
2022-09-12T12:17:25.639Z,-11562.38
2022-09-12T12:20:32.416Z,-11567.19
2022-09-12T12:23:39.896Z,-11538.81
2022-09-12T12:26:57.504Z,-11553.47
2022-09-12T12:30:03.619Z,-11559.97
2022-09-12T12:33:55.582Z,-11562.50
2022-09-12T12:37:40.881Z,-11531.31
2022-09-12T12:40:49.611Z,-11550.53
2022-09-12T12:43:57.712Z,-11531.31
2022-09-12T12:47:18.882Z,-11548.97
2022-09-12T12:50:27.924Z,-11545.88
2022-09-12T12:53:36.100Z,-11552.63
2022-09-12T12:56:45.194Z,-11557.72
2022-09-12T12:59:54.762Z,-11530.63
2022-09-12T13:03:07.229Z,-11524.69
2022-09-12T13:06:30.462Z,-11522.44
2022-09-12T13:09:44.967Z,-11534.16
2022-09-12T13:12:53.618Z,-11559.69
2022-09-12T13:16:00.075Z,-11545.88
2022-09-12T13:19:17.447Z,-11529.22
2022-09-12T13:22:26.247Z,-11537.41
2022-09-12T13:25:34.154Z,-11543.03
2022-09-12T13:28:41.934Z,-11535.97
2022-09-12T13:31:51.346Z,-11515.66
2022-09-12T13:35:12.095Z,-11525.53
2022-09-12T13:38:31.682Z,-11527.09
2022-09-12T13:41:54.032Z,-11527.25
2022-09-12T13:45:06.069Z,-11544.72
2022-09-12T13:48:17.884Z,-11520.59
2022-09-12T13:51:27.719Z,-11514.41
2022-09-12T13:54:35.454Z,-11531.19
2022-09-12T13:57:42.467Z,-11530.06
2022-09-12T14:01:02.234Z,-11523.84
2022-09-12T14:04:34.945Z,-11508.19
2022-09-12T14:07:55.282Z,-11521.31
2022-09-12T14:11:04.410Z,-11516.38
2022-09-12T14:14:22.119Z,-11534.28
2022-09-12T14:17:36.328Z,-11514.97
2022-09-12T14:20:43.127Z,-11522.03
2022-09-12T14:23:50.447Z,-11507.22
2022-09-12T14:26:58.208Z,-11525.97
2022-09-12T14:30:09.243Z,-11517.34
2022-09-12T14:33:22.471Z,-11506.94
2022-09-12T14:36:32.706Z,-11521.31
2022-09-12T14:39:42.503Z,-11558.13
2022-09-12T14:42:50.837Z,-11570.28
2022-09-12T14:46:00.744Z,-11579.44
2022-09-12T14:49:15.505Z,-11479.84
2022-09-12T14:52:26.767Z,-11469.53
2022-09-12T14:55:35.365Z,-11473.34
2022-09-12T14:58:42.484Z,-11469.69
2022-09-12T15:01:48.786Z,-11465.88
2022-09-12T15:05:16.528Z,-11464.59
2022-09-12T15:08:22.902Z,-11456.84
2022-09-12T15:11:30.706Z,-11453.63
2022-09-12T15:14:37.251Z,-11457.84
2022-09-12T15:17:44.143Z,-11465.16
2022-09-12T15:20:54.126Z,-11456.84
2022-09-12T15:24:00.319Z,-11453.34
2022-09-12T15:27:10.841Z,-11448.66
2022-09-12T15:30:16.928Z,-11447.41
2022-09-12T15:33:25.317Z,-11444.88
2022-09-12T15:36:33.023Z,-11447.41
2022-09-12T15:39:39.131Z,-11440.78
2022-09-12T15:42:45.409Z,-11445.16
2022-09-12T15:45:52.483Z,-11445.56
2022-09-12T15:48:58.834Z,-11448.53
2022-09-12T15:52:07.332Z,-11442.91
2022-09-12T15:55:18.747Z,-11443.47
2022-09-12T15:58:24.975Z,-11440.34
2022-09-12T16:01:31.332Z,-11437.41
2022-09-12T16:04:37.749Z,-11437.53
2022-09-12T16:07:46.218Z,-11426.25
2022-09-12T16:10:55.975Z,-11435.97
2022-09-12T16:14:03.852Z,-11430.50
2022-09-12T16:17:10.465Z,-11429.66
2022-09-12T16:20:17.445Z,-11424.28
2022-09-12T16:23:25.715Z,-11426.13
2022-09-12T16:26:31.756Z,-11419.78
2022-09-12T16:29:38.277Z,-11415.53
2022-09-12T16:32:44.742Z,-11420.91
2022-09-12T16:35:54.887Z,-11416.94
2022-09-12T16:39:02.311Z,-11413.84
2022-09-12T16:42:08.660Z,-11413.56
2022-09-12T16:45:15.316Z,-11414.69
2022-09-12T16:48:21.481Z,-11411.88
2022-09-12T16:51:29.810Z,-11408.63
2022-09-12T16:54:37.468Z,-11406.94
2022-09-12T16:57:44.019Z,-11409.34
2022-09-12T17:00:50.506Z,-11406.53
2022-09-12T17:03:58.302Z,-11408.78
2022-09-12T17:07:04.946Z,-11406.53
2022-09-12T17:10:12.424Z,-11401.16
2022-09-12T17:13:18.668Z,-11406.94
2022-09-12T17:16:25.677Z,-11404.84
2022-09-12T17:19:32.535Z,-11405.41
2022-09-12T17:22:39.154Z,-11404.69
2022-09-12T17:25:49.318Z,-11400.88
2022-09-12T17:28:55.371Z,-11402.00
2022-09-12T17:32:01.890Z,-11397.38
2022-09-12T17:35:09.088Z,-11399.47
2022-09-12T17:38:19.313Z,-11397.09
2022-09-12T17:41:31.864Z,-11394.97
2022-09-12T17:44:38.298Z,-11393.28
2022-09-12T17:47:44.475Z,-11393.84
2022-09-12T17:50:50.866Z,-11390.47
2022-09-12T17:54:01.197Z,-11390.47
2022-09-12T17:57:09.184Z,-11385.81
2022-09-12T18:00:16.134Z,-11386.66
2022-09-12T18:03:23.093Z,-11387.06
2022-09-12T18:06:32.390Z,-11388.19
2022-09-12T18:09:39.088Z,-11381.44
2022-09-12T18:12:47.187Z,-11384.53
2022-09-12T18:15:53.398Z,-11377.22
2022-09-12T18:19:01.468Z,-11380.88
2022-09-12T18:22:07.868Z,-11375.81
2022-09-12T18:25:13.940Z,-11371.56
2022-09-12T18:28:21.664Z,-11373.84
2022-09-12T18:31:29.996Z,-11374.13
2022-09-12T18:34:36.608Z,-11366.66
2022-09-12T18:37:44.020Z,-11371.00
2022-09-12T18:40:50.541Z,-11368.63
2022-09-12T18:43:59.958Z,-11365.09
2022-09-12T18:47:06.668Z,-11369.88
2022-09-12T18:50:13.086Z,-11363.53
2022-09-12T18:53:19.846Z,-11364.41
2022-09-12T18:56:28.015Z,-11360.88
2022-09-12T18:59:35.833Z,-11363.69
2022-09-12T19:02:41.938Z,-11361.00
2022-09-12T19:05:48.188Z,-11355.66
2022-09-12T19:08:56.246Z,-11360.31
2022-09-12T19:12:02.713Z,-11360.03
2022-09-12T19:15:11.176Z,-11357.50
2022-09-12T19:18:17.693Z,-11357.78
2022-09-12T19:21:26.214Z,-11357.50
2022-09-12T19:24:32.337Z,-11357.34
2022-09-12T19:27:38.924Z,-11352.69
2022-09-12T19:30:49.954Z,-11352.13
2022-09-12T19:34:01.202Z,-11348.19
2022-09-12T19:37:07.499Z,-11343.13
2022-09-12T19:40:13.793Z,-11335.78
2022-09-12T19:43:20.025Z,-11335.78
2022-09-12T19:46:28.566Z,-11333.41
2022-09-12T19:49:34.498Z,-11333.56
2022-09-12T19:52:41.028Z,-11330.72
2022-09-12T19:55:47.872Z,-11328.91
2022-09-12T19:58:56.632Z,-11324.81
2022-09-12T20:02:04.540Z,-11324.66
2022-09-12T20:05:11.083Z,-11323.25
2022-09-12T20:08:17.419Z,-11317.50
2022-09-12T20:11:25.887Z,-11317.50
2022-09-12T20:14:32.210Z,-11322.69
2022-09-12T20:17:40.272Z,-11318.91
2022-09-12T20:20:46.796Z,-11320.31
2022-09-12T20:23:53.259Z,-11316.66
2022-09-12T20:26:59.544Z,-11318.47
2022-09-12T20:30:06.888Z,-11314.41
2022-09-12T20:33:14.628Z,-11319.03
2022-09-12T20:36:22.201Z,-11315.66
2022-09-12T20:39:29.259Z,-11315.25
2022-09-12T20:42:35.362Z,-11314.13
2022-09-12T20:45:42.192Z,-11316.38
2022-09-12T20:48:49.907Z,-11315.38
2022-09-12T20:51:55.860Z,-11309.88
2022-09-12T20:55:01.844Z,-11311.28
2022-09-12T20:58:08.395Z,-11305.66
2022-09-12T21:01:16.737Z,-11301.31
2022-09-12T21:04:25.427Z,-11299.19
2022-09-12T21:07:32.322Z,-11304.53
2022-09-12T21:10:38.634Z,-11302.00
2022-09-12T21:13:45.248Z,-11295.53
2022-09-12T21:16:52.159Z,-11292.28
2022-09-12T21:19:59.977Z,-11297.78
2022-09-12T21:23:06.452Z,-11294.97
2022-09-12T21:26:13.074Z,-11296.78
2022-09-12T21:29:18.912Z,-11288.19
2022-09-12T21:32:25.419Z,-11286.50
2022-09-12T21:35:35.331Z,-11277.78
2022-09-12T21:38:41.667Z,-11283.13
2022-09-12T21:41:47.828Z,-11287.63
2022-09-12T21:44:54.132Z,-11283.13
2022-09-12T21:48:00.589Z,-11254.44
2022-09-12T21:51:08.579Z,-11264.44
2022-09-12T21:54:15.188Z,-11242.47
2022-09-12T21:57:21.507Z,-11244.31
2022-09-12T22:00:27.594Z,-11266.81
2022-09-12T22:03:33.863Z,-11269.63
2022-09-12T22:06:41.354Z,-11266.53
2022-09-12T22:09:47.235Z,-11273.84
2022-09-12T22:12:53.531Z,-11269.34
2022-09-12T22:16:00.703Z,-11261.88
2022-09-12T22:19:07.099Z,-11267.38
2022-09-12T22:22:31.795Z,-11262.31
2022-09-12T22:25:38.013Z,-11264.56
2022-09-12T22:28:44.487Z,-11258.50
2022-09-12T22:31:50.880Z,-11256.13
2022-09-12T22:34:57.987Z,-11230.78
2022-09-12T22:38:05.943Z,-11246.56
2022-09-12T22:41:13.251Z,-11255.84
2022-09-12T22:44:20.990Z,-11256.97
2022-09-12T22:47:27.700Z,-11259.22
2022-09-12T22:50:33.822Z,-11253.31
2022-09-12T22:53:41.627Z,-11255.28
2022-09-12T22:56:47.780Z,-11251.34
2022-09-12T22:59:54.256Z,-11251.19
2022-09-12T23:03:01.966Z,-11251.19
2022-09-12T23:06:08.787Z,-11235.31
2022-09-12T23:09:16.366Z,-11215.88
2022-09-12T23:12:22.742Z,-11208.72
2022-09-12T23:15:29.479Z,-11213.63
2022-09-12T23:18:37.387Z,-11212.22
2022-09-12T23:21:43.640Z,-11216.72
2022-09-12T23:24:51.083Z,-11227.00
2022-09-12T23:27:56.958Z,-11218.69
2022-09-12T23:31:03.776Z,-11235.88
2022-09-12T23:34:10.910Z,-11219.81
2022-09-12T23:37:17.061Z,-11231.63
2022-09-12T23:40:24.798Z,-11235.59
2022-09-12T23:43:32.338Z,-11238.94
2022-09-12T23:46:38.675Z,-11234.75
2022-09-12T23:49:46.002Z,-11232.47
2022-09-12T23:52:52.151Z,-11222.50
2022-09-12T23:56:00.342Z,-11233.88
2022-09-12T23:59:06.704Z,-11237.56
